sensor_id;sensor_type;location;lat;lon;timestamp;pressure;altitude;pressure_sealevel;temperature;humidity
63556;BME280;49700;48.072;7.800;2023-08-01T00:02:10;98516.50;;;21.32;nan
63556;BME280;49700;48.072;7.800;2023-08-01T00:04:36;98513.34;;;21.43;nan
63556;BME280;49700;48.072;7.800;2023-08-01T00:07:01;98511.78;;;21.56;nan
63556;BME280;49700;48.072;7.800;2023-08-01T00:09:26;98507.94;;;21.65;nan
63556;BME280;49700;48.072;7.800;2023-08-01T00:11:52;98499.16;;;21.71;nan
63556;BME280;49700;48.072;7.800;2023-08-01T00:14:17;98502.66;;;21.78;nan
63556;BME280;49700;48.072;7.800;2023-08-01T00:16:45;98494.88;;;21.83;nan
63556;BME280;49700;48.072;7.800;2023-08-01T00:19:10;98496.97;;;21.88;nan
63556;BME280;49700;48.072;7.800;2023-08-01T00:21:37;98495.75;;;21.91;nan
63556;BME280;49700;48.072;7.800;2023-08-01T00:24:03;98486.31;;;21.95;nan
63556;BME280;49700;48.072;7.800;2023-08-01T00:26:28;98489.44;;;21.98;nan
63556;BME280;49700;48.072;7.800;2023-08-01T00:28:54;98494.16;;;22.03;nan
63556;BME280;49700;48.072;7.800;2023-08-01T00:31:19;98492.94;;;22.05;nan
63556;BME280;49700;48.072;7.800;2023-08-01T00:33:45;98494.22;;;22.09;nan
63556;BME280;49700;48.072;7.800;2023-08-01T00:36:10;98485.16;;;22.10;nan
63556;BME280;49700;48.072;7.800;2023-08-01T00:38:37;98483.94;;;22.13;nan
63556;BME280;49700;48.072;7.800;2023-08-01T00:41:02;98482.72;;;22.16;nan
63556;BME280;49700;48.072;7.800;2023-08-01T00:43:28;98486.00;;;22.18;nan
63556;BME280;49700;48.072;7.800;2023-08-01T00:45:58;98489.53;;;22.18;nan
63556;BME280;49700;48.072;7.800;2023-08-01T00:48:24;98489.53;;;22.18;nan
63556;BME280;49700;48.072;7.800;2023-08-01T00:50:50;98487.69;;;22.19;nan
63556;BME280;49700;48.072;7.800;2023-08-01T00:53:16;98485.81;;;22.19;nan
63556;BME280;49700;48.072;7.800;2023-08-01T00:55:43;98474.13;;;22.20;nan
63556;BME280;49700;48.072;7.800;2023-08-01T00:58:08;98480.28;;;22.21;nan
63556;BME280;49700;48.072;7.800;2023-08-01T01:00:34;98461.75;;;22.19;nan
63556;BME280;49700;48.072;7.800;2023-08-01T01:03:00;98453.09;;;22.17;nan
63556;BME280;49700;48.072;7.800;2023-08-01T01:05:27;98443.22;;;22.18;nan
63556;BME280;49700;48.072;7.800;2023-08-01T01:07:57;98440.72;;;22.16;nan
63556;BME280;49700;48.072;7.800;2023-08-01T01:10:22;98448.56;;;22.18;nan
63556;BME280;49700;48.072;7.800;2023-08-01T01:12:48;98442.03;;;22.20;nan
63556;BME280;49700;48.072;7.800;2023-08-01T01:15:15;98450.66;;;22.22;nan
63556;BME280;49700;48.072;7.800;2023-08-01T01:17:40;98450.47;;;22.24;nan
63556;BME280;49700;48.072;7.800;2023-08-01T01:20:06;98438.72;;;22.25;nan
63556;BME280;49700;48.072;7.800;2023-08-01T01:22:32;98441.22;;;22.26;nan
63556;BME280;49700;48.072;7.800;2023-08-01T01:24:59;98431.75;;;22.24;nan
63556;BME280;49700;48.072;7.800;2023-08-01T01:27:27;98436.91;;;22.25;nan
63556;BME280;49700;48.072;7.800;2023-08-01T01:29:53;98442.84;;;22.27;nan
63556;BME280;49700;48.072;7.800;2023-08-01T01:32:20;98434.44;;;22.30;nan
63556;BME280;49700;48.072;7.800;2023-08-01T01:34:46;98434.84;;;22.34;nan
63556;BME280;49700;48.072;7.800;2023-08-01T01:37:11;98435.28;;;22.38;nan
63556;BME280;49700;48.072;7.800;2023-08-01T01:39:36;98432.19;;;22.41;nan
63556;BME280;49700;48.072;7.800;2023-08-01T01:42:02;98431.19;;;22.42;nan
63556;BME280;49700;48.072;7.800;2023-08-01T01:44:27;98433.44;;;22.45;nan
63556;BME280;49700;48.072;7.800;2023-08-01T01:46:53;98419.66;;;22.48;nan
63556;BME280;49700;48.072;7.800;2023-08-01T01:49:19;98423.38;;;22.47;nan
63556;BME280;49700;48.072;7.800;2023-08-01T01:51:44;98432.00;;;22.49;nan
63556;BME280;49700;48.072;7.800;2023-08-01T01:54:10;98426.88;;;22.47;nan
63556;BME280;49700;48.072;7.800;2023-08-01T01:56:35;98424.38;;;22.46;nan
63556;BME280;49700;48.072;7.800;2023-08-01T01:59:02;98432.22;;;22.47;nan
63556;BME280;49700;48.072;7.800;2023-08-01T02:01:27;98433.44;;;22.45;nan
63556;BME280;49700;48.072;7.800;2023-08-01T02:03:53;98437.97;;;22.44;nan
63556;BME280;49700;48.072;7.800;2023-08-01T02:06:18;98430.78;;;22.45;nan
63556;BME280;49700;48.072;7.800;2023-08-01T02:08:44;98428.91;;;22.45;nan
63556;BME280;49700;48.072;7.800;2023-08-01T02:11:10;98420.06;;;22.45;nan
63556;BME280;49700;48.072;7.800;2023-08-01T02:13:36;98422.31;;;22.41;nan
63556;BME280;49700;48.072;7.800;2023-08-01T02:16:01;98413.47;;;22.41;nan
63556;BME280;49700;48.072;7.800;2023-08-01T02:18:26;98412.84;;;22.39;nan
63556;BME280;49700;48.072;7.800;2023-08-01T02:20:52;98418.22;;;22.39;nan
63556;BME280;49700;48.072;7.800;2023-08-01T02:23:18;98411.00;;;22.39;nan
63556;BME280;49700;48.072;7.800;2023-08-01T02:25:44;98409.78;;;22.42;nan
63556;BME280;49700;48.072;7.800;2023-08-01T02:28:09;98407.09;;;22.42;nan
63556;BME280;49700;48.072;7.800;2023-08-01T02:30:35;98413.06;;;22.44;nan
63556;BME280;49700;48.072;7.800;2023-08-01T02:33:01;98417.38;;;22.45;nan
63556;BME280;49700;48.072;7.800;2023-08-01T02:35:28;98429.09;;;22.44;nan
63556;BME280;49700;48.072;7.800;2023-08-01T02:37:54;98406.47;;;22.46;nan
63556;BME280;49700;48.072;7.800;2023-08-01T02:40:19;98402.56;;;22.49;nan
63556;BME280;49700;48.072;7.800;2023-08-01T02:42:45;98409.16;;;22.53;nan
63556;BME280;49700;48.072;7.800;2023-08-01T02:45:10;98411.84;;;22.53;nan
63556;BME280;49700;48.072;7.800;2023-08-01T02:47:35;98419.88;;;22.53;nan
63556;BME280;49700;48.072;7.800;2023-08-01T02:50:01;98420.69;;;22.53;nan
63556;BME280;49700;48.072;7.800;2023-08-01T02:52:26;98419.66;;;22.54;nan
63556;BME280;49700;48.072;7.800;2023-08-01T02:54:52;98428.13;;;22.58;nan
63556;BME280;49700;48.072;7.800;2023-08-01T02:57:17;98430.78;;;22.58;nan
63556;BME280;49700;48.072;7.800;2023-08-01T02:59:42;98440.06;;;22.62;nan
63556;BME280;49700;48.072;7.800;2023-08-01T03:02:08;98457.78;;;22.63;nan
63556;BME280;49700;48.072;7.800;2023-08-01T03:04:33;98451.56;;;22.63;nan
63556;BME280;49700;48.072;7.800;2023-08-01T03:06:58;98443.78;;;22.61;nan
63556;BME280;49700;48.072;7.800;2023-08-01T03:09:24;98462.50;;;22.61;nan
63556;BME280;49700;48.072;7.800;2023-08-01T03:11:49;98458.56;;;22.57;nan
63556;BME280;49700;48.072;7.800;2023-08-01T03:14:15;98463.31;;;22.55;nan
63556;BME280;49700;48.072;7.800;2023-08-01T03:16:42;98460.22;;;22.51;nan
63556;BME280;49700;48.072;7.800;2023-08-01T03:19:07;98468.47;;;22.50;nan
63556;BME280;49700;48.072;7.800;2023-08-01T03:21:34;98469.69;;;22.47;nan
63556;BME280;49700;48.072;7.800;2023-08-01T03:24:00;98470.91;;;22.45;nan
63556;BME280;49700;48.072;7.800;2023-08-01T03:26:27;98475.63;;;22.43;nan
63556;BME280;49700;48.072;7.800;2023-08-01T03:28:56;98460.16;;;22.38;nan
63556;BME280;49700;48.072;7.800;2023-08-01T03:31:22;98456.03;;;22.36;nan
63556;BME280;49700;48.072;7.800;2023-08-01T03:33:47;98445.34;;;22.36;nan
63556;BME280;49700;48.072;7.800;2023-08-01T03:36:13;98439.19;;;22.35;nan
63556;BME280;49700;48.072;7.800;2023-08-01T03:38:39;98426.03;;;22.34;nan
63556;BME280;49700;48.072;7.800;2023-08-01T03:41:16;98422.91;;;22.30;nan
63556;BME280;49700;48.072;7.800;2023-08-01T03:43:41;98418.78;;;22.27;nan
63556;BME280;49700;48.072;7.800;2023-08-01T03:46:07;98409.31;;;22.25;nan
63556;BME280;49700;48.072;7.800;2023-08-01T03:48:32;98402.50;;;22.22;nan
63556;BME280;49700;48.072;7.800;2023-08-01T03:50:58;98400.06;;;22.21;nan
63556;BME280;49700;48.072;7.800;2023-08-01T03:53:25;98399.41;;;22.19;nan
63556;BME280;49700;48.072;7.800;2023-08-01T03:55:51;98381.66;;;22.11;nan
63556;BME280;49700;48.072;7.800;2023-08-01T03:58:16;98373.84;;;22.03;nan
63556;BME280;49700;48.072;7.800;2023-08-01T04:00:42;98382.66;;;21.97;nan
63556;BME280;49700;48.072;7.800;2023-08-01T04:03:07;98398.88;;;21.88;nan
63556;BME280;49700;48.072;7.800;2023-08-01T04:05:33;98368.63;;;21.81;nan
63556;BME280;49700;48.072;7.800;2023-08-01T04:07:58;98368.78;;;21.73;nan
63556;BME280;49700;48.072;7.800;2023-08-01T04:10:24;98369.78;;;21.65;nan
63556;BME280;49700;48.072;7.800;2023-08-01T04:12:50;98342.22;;;21.58;nan
63556;BME280;49700;48.072;7.800;2023-08-01T04:15:15;98330.91;;;21.50;nan
63556;BME280;49700;48.072;7.800;2023-08-01T04:17:41;98292.81;;;21.41;nan
63556;BME280;49700;48.072;7.800;2023-08-01T04:20:06;98296.84;;;21.30;nan
63556;BME280;49700;48.072;7.800;2023-08-01T04:22:32;98322.09;;;21.21;nan
63556;BME280;49700;48.072;7.800;2023-08-01T04:24:57;98306.16;;;21.06;nan
63556;BME280;49700;48.072;7.800;2023-08-01T04:27:22;98303.88;;;20.96;nan
63556;BME280;49700;48.072;7.800;2023-08-01T04:29:48;98293.75;;;20.85;nan
63556;BME280;49700;48.072;7.800;2023-08-01T04:32:14;98288.34;;;20.78;nan
63556;BME280;49700;48.072;7.800;2023-08-01T04:34:41;98304.72;;;20.69;nan
63556;BME280;49700;48.072;7.800;2023-08-01T04:37:06;98324.75;;;20.58;nan
63556;BME280;49700;48.072;7.800;2023-08-01T04:39:32;98329.00;;;20.52;nan
63556;BME280;49700;48.072;7.800;2023-08-01T04:41:57;98331.78;;;20.44;nan
63556;BME280;49700;48.072;7.800;2023-08-01T04:44:22;98361.50;;;20.41;nan
63556;BME280;49700;48.072;7.800;2023-08-01T04:46:48;98370.59;;;20.25;nan
63556;BME280;49700;48.072;7.800;2023-08-01T04:49:14;98389.19;;;20.19;nan
63556;BME280;49700;48.072;7.800;2023-08-01T04:51:39;98393.25;;;20.15;nan
63556;BME280;49700;48.072;7.800;2023-08-01T04:54:04;98373.47;;;20.09;nan
63556;BME280;49700;48.072;7.800;2023-08-01T04:56:30;98335.72;;;20.05;nan
63556;BME280;49700;48.072;7.800;2023-08-01T04:58:55;98294.09;;;20.04;nan
63556;BME280;49700;48.072;7.800;2023-08-01T05:01:20;98291.81;;;20.01;nan
63556;BME280;49700;48.072;7.800;2023-08-01T05:03:46;98300.19;;;19.98;nan
63556;BME280;49700;48.072;7.800;2023-08-01T05:06:11;98284.94;;;19.92;nan
63556;BME280;49700;48.072;7.800;2023-08-01T05:08:37;98294.13;;;19.89;nan
63556;BME280;49700;48.072;7.800;2023-08-01T05:11:02;98304.34;;;19.86;nan
63556;BME280;49700;48.072;7.800;2023-08-01T05:13:27;98324.03;;;19.85;nan
63556;BME280;49700;48.072;7.800;2023-08-01T05:15:53;98314.75;;;19.81;nan
63556;BME280;49700;48.072;7.800;2023-08-01T05:18:18;98321.28;;;19.78;nan
63556;BME280;49700;48.072;7.800;2023-08-01T05:20:44;98328.47;;;19.78;nan
63556;BME280;49700;48.072;7.800;2023-08-01T05:23:09;98331.94;;;19.78;nan
63556;BME280;49700;48.072;7.800;2023-08-01T05:25:35;98336.44;;;19.78;nan
63556;BME280;49700;48.072;7.800;2023-08-01T05:28:01;98344.44;;;19.78;nan
63556;BME280;49700;48.072;7.800;2023-08-01T05:30:26;98359.13;;;19.74;nan
63556;BME280;49700;48.072;7.800;2023-08-01T05:32:51;98361.19;;;19.72;nan
63556;BME280;49700;48.072;7.800;2023-08-01T05:35:19;98363.22;;;19.70;nan
63556;BME280;49700;48.072;7.800;2023-08-01T05:37:44;98365.22;;;19.67;nan
63556;BME280;49700;48.072;7.800;2023-08-01T05:40:10;98358.25;;;19.66;nan
63556;BME280;49700;48.072;7.800;2023-08-01T05:42:35;98369.06;;;19.65;nan
63556;BME280;49700;48.072;7.800;2023-08-01T05:45:01;98383.56;;;19.62;nan
63556;BME280;49700;48.072;7.800;2023-08-01T05:47:27;98361.81;;;19.59;nan
63556;BME280;49700;48.072;7.800;2023-08-01T05:49:52;98353.81;;;19.59;nan
63556;BME280;49700;48.072;7.800;2023-08-01T05:52:17;98363.00;;;19.56;nan
63556;BME280;49700;48.072;7.800;2023-08-01T05:54:43;98362.34;;;19.54;nan
63556;BME280;49700;48.072;7.800;2023-08-01T05:57:08;98379.34;;;19.53;nan
63556;BME280;49700;48.072;7.800;2023-08-01T05:59:34;98361.38;;;19.55;nan
63556;BME280;49700;48.072;7.800;2023-08-01T06:01:59;98333.06;;;19.54;nan
63556;BME280;49700;48.072;7.800;2023-08-01T06:04:25;98318.91;;;19.54;nan
63556;BME280;49700;48.072;7.800;2023-08-01T06:06:50;98353.16;;;19.57;nan
63556;BME280;49700;48.072;7.800;2023-08-01T06:09:15;98358.94;;;19.60;nan
63556;BME280;49700;48.072;7.800;2023-08-01T06:11:41;98358.78;;;19.62;nan
63556;BME280;49700;48.072;7.800;2023-08-01T06:14:06;98359.41;;;19.64;nan
63556;BME280;49700;48.072;7.800;2023-08-01T06:16:32;98346.56;;;19.67;nan
63556;BME280;49700;48.072;7.800;2023-08-01T06:18:58;98368.53;;;19.70;nan
63556;BME280;49700;48.072;7.800;2023-08-01T06:21:24;98357.50;;;19.73;nan
63556;BME280;49700;48.072;7.800;2023-08-01T06:23:49;98352.00;;;19.74;nan
63556;BME280;49700;48.072;7.800;2023-08-01T06:26:15;98343.16;;;19.74;nan
63556;BME280;49700;48.072;7.800;2023-08-01T06:28:41;98358.31;;;19.73;nan
63556;BME280;49700;48.072;7.800;2023-08-01T06:31:06;98356.69;;;19.72;nan
63556;BME280;49700;48.072;7.800;2023-08-01T06:33:32;98337.38;;;19.70;nan
63556;BME280;49700;48.072;7.800;2023-08-01T06:35:57;98334.53;;;19.72;nan
63556;BME280;49700;48.072;7.800;2023-08-01T06:38:23;98330.22;;;19.71;nan
63556;BME280;49700;48.072;7.800;2023-08-01T06:40:48;98360.97;;;19.73;nan
63556;BME280;49700;48.072;7.800;2023-08-01T06:43:14;98365.38;;;19.81;nan
63556;BME280;49700;48.072;7.800;2023-08-01T06:45:39;98364.63;;;19.87;nan
63556;BME280;49700;48.072;7.800;2023-08-01T06:48:05;98366.28;;;19.88;nan
63556;BME280;49700;48.072;7.800;2023-08-01T06:50:30;98368.31;;;19.86;nan
63556;BME280;49700;48.072;7.800;2023-08-01T06:52:56;98370.97;;;19.86;nan
63556;BME280;49700;48.072;7.800;2023-08-01T06:55:21;98367.66;;;19.84;nan
63556;BME280;49700;48.072;7.800;2023-08-01T07:00:30;98360.81;;;19.75;nan
63556;BME280;49700;48.072;7.800;2023-08-01T07:02:57;98362.00;;;19.72;nan
63556;BME280;49700;48.072;7.800;2023-08-01T07:05:22;98344.81;;;19.75;nan
63556;BME280;49700;48.072;7.800;2023-08-01T07:07:48;98360.59;;;19.76;nan
63556;BME280;49700;48.072;7.800;2023-08-01T07:10:14;98366.19;;;19.81;nan
63556;BME280;49700;48.072;7.800;2023-08-01T07:12:39;98370.34;;;19.84;nan
63556;BME280;49700;48.072;7.800;2023-08-01T07:15:06;98367.28;;;19.87;nan
63556;BME280;49700;48.072;7.800;2023-08-01T07:17:31;98374.91;;;19.90;nan
63556;BME280;49700;48.072;7.800;2023-08-01T07:19:57;98381.25;;;19.89;nan
63556;BME280;49700;48.072;7.800;2023-08-01T07:22:22;98382.91;;;19.90;nan
63556;BME280;49700;48.072;7.800;2023-08-01T07:24:52;98391.84;;;19.82;nan
63556;BME280;49700;48.072;7.800;2023-08-01T07:27:18;98382.94;;;19.75;nan
63556;BME280;49700;48.072;7.800;2023-08-01T07:29:46;98377.56;;;19.69;nan
63556;BME280;49700;48.072;7.800;2023-08-01T07:32:11;98364.91;;;19.62;nan
63556;BME280;49700;48.072;7.800;2023-08-01T07:34:37;98372.38;;;19.52;nan
63556;BME280;49700;48.072;7.800;2023-08-01T07:37:02;98364.47;;;19.44;nan
63556;BME280;49700;48.072;7.800;2023-08-01T07:39:28;98365.59;;;19.35;nan
63556;BME280;49700;48.072;7.800;2023-08-01T07:41:55;98354.00;;;19.28;nan
63556;BME280;49700;48.072;7.800;2023-08-01T07:44:20;98363.41;;;19.23;nan
63556;BME280;49700;48.072;7.800;2023-08-01T07:46:46;98381.91;;;19.17;nan
63556;BME280;49700;48.072;7.800;2023-08-01T07:49:11;98371.84;;;19.12;nan
63556;BME280;49700;48.072;7.800;2023-08-01T07:51:37;98378.53;;;19.08;nan
63556;BME280;49700;48.072;7.800;2023-08-01T07:54:02;98359.44;;;19.05;nan
63556;BME280;49700;48.072;7.800;2023-08-01T07:56:27;98339.34;;;19.02;nan
63556;BME280;49700;48.072;7.800;2023-08-01T07:58:53;98327.06;;;19.01;nan
63556;BME280;49700;48.072;7.800;2023-08-01T08:01:18;98352.19;;;18.98;nan
63556;BME280;49700;48.072;7.800;2023-08-01T08:03:43;98360.88;;;18.92;nan
63556;BME280;49700;48.072;7.800;2023-08-01T08:06:09;98362.91;;;18.90;nan
63556;BME280;49700;48.072;7.800;2023-08-01T08:08:34;98350.97;;;18.86;nan
63556;BME280;49700;48.072;7.800;2023-08-01T08:11:01;98344.84;;;18.86;nan
63556;BME280;49700;48.072;7.800;2023-08-01T08:13:30;98334.19;;;18.86;nan
63556;BME280;49700;48.072;7.800;2023-08-01T08:15:56;98340.78;;;18.90;nan
63556;BME280;49700;48.072;7.800;2023-08-01T08:18:24;98339.72;;;18.99;nan
63556;BME280;49700;48.072;7.800;2023-08-01T08:20:50;98342.28;;;19.07;nan
63556;BME280;49700;48.072;7.800;2023-08-01T08:23:15;98349.81;;;19.18;nan
63556;BME280;49700;48.072;7.800;2023-08-01T08:25:41;98340.53;;;19.29;nan
63556;BME280;49700;48.072;7.800;2023-08-01T08:28:07;98350.25;;;19.37;nan
63556;BME280;49700;48.072;7.800;2023-08-01T08:30:34;98351.81;;;19.46;nan
63556;BME280;49700;48.072;7.800;2023-08-01T08:33:00;98347.03;;;19.56;nan
63556;BME280;49700;48.072;7.800;2023-08-01T08:35:32;98359.41;;;19.64;nan
63556;BME280;49700;48.072;7.800;2023-08-01T08:37:59;98357.50;;;19.73;nan
63556;BME280;49700;48.072;7.800;2023-08-01T08:40:25;98358.84;;;19.83;nan
63556;BME280;49700;48.072;7.800;2023-08-01T08:42:52;98360.47;;;19.99;nan
63556;BME280;49700;48.072;7.800;2023-08-01T08:45:19;98353.00;;;20.09;nan
63556;BME280;49700;48.072;7.800;2023-08-01T08:47:49;98360.22;;;20.16;nan
63556;BME280;49700;48.072;7.800;2023-08-01T08:50:19;98349.75;;;20.14;nan
63556;BME280;49700;48.072;7.800;2023-08-01T08:52:45;98355.47;;;20.11;nan
63556;BME280;49700;48.072;7.800;2023-08-01T08:55:11;98348.50;;;20.10;nan
63556;BME280;49700;48.072;7.800;2023-08-01T08:57:36;98352.78;;;20.11;nan
63556;BME280;49700;48.072;7.800;2023-08-01T09:00:04;98354.63;;;20.10;nan
63556;BME280;49700;48.072;7.800;2023-08-01T09:02:32;98366.31;;;20.09;nan
63556;BME280;49700;48.072;7.800;2023-08-01T09:04:57;98360.34;;;20.07;nan
63556;BME280;49700;48.072;7.800;2023-08-01T09:07:24;98367.72;;;20.05;nan
63556;BME280;49700;48.072;7.800;2023-08-01T09:09:54;98358.72;;;20.06;nan
63556;BME280;49700;48.072;7.800;2023-08-01T09:12:23;98365.69;;;20.07;nan
63556;BME280;49700;48.072;7.800;2023-08-01T09:14:50;98372.09;;;20.13;nan
63556;BME280;49700;48.072;7.800;2023-08-01T09:17:16;98362.72;;;20.17;nan
63556;BME280;49700;48.072;7.800;2023-08-01T09:19:43;98360.50;;;20.21;nan
63556;BME280;49700;48.072;7.800;2023-08-01T09:22:13;98371.59;;;20.24;nan
63556;BME280;49700;48.072;7.800;2023-08-01T09:24:38;98364.88;;;20.28;nan
63556;BME280;49700;48.072;7.800;2023-08-01T09:27:04;98373.13;;;20.33;nan
63556;BME280;49700;48.072;7.800;2023-08-01T09:29:30;98374.13;;;20.32;nan
63556;BME280;49700;48.072;7.800;2023-08-01T09:31:57;98379.28;;;20.34;nan
63556;BME280;49700;48.072;7.800;2023-08-01T09:34:25;98369.88;;;20.38;nan
63556;BME280;49700;48.072;7.800;2023-08-01T09:36:56;98368.94;;;20.46;nan
63556;BME280;49700;48.072;7.800;2023-08-01T09:39:22;98360.25;;;20.59;nan
63556;BME280;49700;48.072;7.800;2023-08-01T09:42:01;98370.66;;;20.75;nan
63556;BME280;49700;48.072;7.800;2023-08-01T09:44:28;98384.09;;;20.88;nan
63556;BME280;49700;48.072;7.800;2023-08-01T09:47:01;98379.25;;;20.98;nan
63556;BME280;49700;48.072;7.800;2023-08-01T09:49:27;98364.09;;;21.06;nan
63556;BME280;49700;48.072;7.800;2023-08-01T09:51:53;98387.13;;;21.07;nan
63556;BME280;49700;48.072;7.800;2023-08-01T09:54:20;98387.50;;;21.04;nan
63556;BME280;49700;48.072;7.800;2023-08-01T09:56:49;98406.38;;;21.02;nan
63556;BME280;49700;48.072;7.800;2023-08-01T09:59:23;98406.38;;;21.02;nan
63556;BME280;49700;48.072;7.800;2023-08-01T10:01:50;98394.09;;;21.08;nan
63556;BME280;49700;48.072;7.800;2023-08-01T10:04:29;98392.31;;;21.15;nan
63556;BME280;49700;48.072;7.800;2023-08-01T10:06:58;98411.00;;;21.15;nan
63556;BME280;49700;48.072;7.800;2023-08-01T10:09:28;98413.66;;;21.15;nan
63556;BME280;49700;48.072;7.800;2023-08-01T10:11:57;98403.59;;;21.17;nan
63556;BME280;49700;48.072;7.800;2023-08-01T10:14:23;98414.28;;;21.17;nan
63556;BME280;49700;48.072;7.800;2023-08-01T10:16:51;98413.53;;;21.23;nan
63556;BME280;49700;48.072;7.800;2023-08-01T10:19:17;98410.06;;;21.29;nan
63556;BME280;49700;48.072;7.800;2023-08-01T10:21:43;98410.94;;;21.36;nan
63556;BME280;49700;48.072;7.800;2023-08-01T10:24:10;98412.44;;;21.46;nan
63556;BME280;49700;48.072;7.800;2023-08-01T10:26:37;98415.13;;;21.46;nan
63556;BME280;49700;48.072;7.800;2023-08-01T10:29:02;98407.28;;;21.44;nan
63556;BME280;49700;48.072;7.800;2023-08-01T10:31:28;98413.25;;;21.46;nan
63556;BME280;49700;48.072;7.800;2023-08-01T10:34:04;98414.13;;;21.53;nan
63556;BME280;49700;48.072;7.800;2023-08-01T10:36:30;98410.50;;;21.61;nan
63556;BME280;49700;48.072;7.800;2023-08-01T10:38:58;98413.41;;;21.66;nan
63556;BME280;49700;48.072;7.800;2023-08-01T10:41:32;98406.22;;;21.73;nan
63556;BME280;49700;48.072;7.800;2023-08-01T10:44:05;98398.72;;;21.97;nan
63556;BME280;49700;48.072;7.800;2023-08-01T10:49:17;98400.34;;;23.06;nan
63556;BME280;49700;48.072;7.800;2023-08-01T10:51:43;98389.41;;;23.34;nan
63556;BME280;49700;48.072;7.800;2023-08-01T10:54:22;98407.50;;;23.45;nan
63556;BME280;49700;48.072;7.800;2023-08-01T10:56:49;98398.41;;;23.46;nan
63556;BME280;49700;48.072;7.800;2023-08-01T10:59:15;98397.22;;;23.42;nan
63556;BME280;49700;48.072;7.800;2023-08-01T11:01:49;98387.13;;;23.37;nan
63556;BME280;49700;48.072;7.800;2023-08-01T11:04:24;98399.66;;;23.44;nan
63556;BME280;49700;48.072;7.800;2023-08-01T11:06:54;98415.50;;;23.52;nan
63556;BME280;49700;48.072;7.800;2023-08-01T11:09:26;98418.41;;;23.50;nan
63556;BME280;49700;48.072;7.800;2023-08-01T11:11:54;98413.88;;;23.51;nan
63556;BME280;49700;48.072;7.800;2023-08-01T11:14:22;98408.91;;;23.54;nan
63556;BME280;49700;48.072;7.800;2023-08-01T11:16:48;98424.41;;;23.52;nan
63556;BME280;49700;48.072;7.800;2023-08-01T11:19:22;98426.25;;;23.52;nan
63556;BME280;49700;48.072;7.800;2023-08-01T11:21:48;98421.69;;;23.59;nan
63556;BME280;49700;48.072;7.800;2023-08-01T11:24:14;98416.91;;;23.68;nan
63556;BME280;49700;48.072;7.800;2023-08-01T11:26:41;98409.06;;;23.86;nan
63556;BME280;49700;48.072;7.800;2023-08-01T11:29:07;98412.06;;;24.10;nan
63556;BME280;49700;48.072;7.800;2023-08-01T11:31:32;98415.22;;;24.32;nan
63556;BME280;49700;48.072;7.800;2023-08-01T11:33:58;98409.16;;;24.43;nan
63556;BME280;49700;48.072;7.800;2023-08-01T11:36:28;98409.59;;;24.46;nan
63556;BME280;49700;48.072;7.800;2023-08-01T11:38:58;98406.72;;;24.41;nan
63556;BME280;49700;48.072;7.800;2023-08-01T11:41:26;98398.50;;;24.36;nan
63556;BME280;49700;48.072;7.800;2023-08-01T11:43:52;98393.47;;;24.46;nan
63556;BME280;49700;48.072;7.800;2023-08-01T11:46:20;98395.00;;;24.67;nan
63556;BME280;49700;48.072;7.800;2023-08-01T11:48:46;98393.97;;;24.93;nan
63556;BME280;49700;48.072;7.800;2023-08-01T11:51:17;98390.28;;;24.88;nan
63556;BME280;49700;48.072;7.800;2023-08-01T11:53:43;98388.09;;;24.78;nan
63556;BME280;49700;48.072;7.800;2023-08-01T11:56:19;98394.63;;;24.64;nan
63556;BME280;49700;48.072;7.800;2023-08-01T11:58:45;98405.00;;;24.54;nan
63556;BME280;49700;48.072;7.800;2023-08-01T12:01:12;98387.25;;;24.53;nan
63556;BME280;49700;48.072;7.800;2023-08-01T12:03:54;98378.00;;;24.48;nan
63556;BME280;49700;48.072;7.800;2023-08-01T12:06:23;98387.69;;;24.43;nan
63556;BME280;49700;48.072;7.800;2023-08-01T12:08:51;98399.75;;;24.34;nan
63556;BME280;49700;48.072;7.800;2023-08-01T12:11:22;98415.88;;;24.27;nan
63556;BME280;49700;48.072;7.800;2023-08-01T12:14:17;98410.38;;;24.15;nan
63556;BME280;49700;48.072;7.800;2023-08-01T12:16:46;98409.38;;;24.03;nan
63556;BME280;49700;48.072;7.800;2023-08-01T12:19:17;98410.28;;;23.90;nan
63556;BME280;49700;48.072;7.800;2023-08-01T12:21:44;98411.13;;;23.84;nan
63556;BME280;49700;48.072;7.800;2023-08-01T12:24:09;98418.97;;;23.79;nan
63556;BME280;49700;48.072;7.800;2023-08-01T12:26:35;98419.81;;;23.79;nan
63556;BME280;49700;48.072;7.800;2023-08-01T12:29:00;98419.38;;;23.82;nan
63556;BME280;49700;48.072;7.800;2023-08-01T12:31:26;98431.75;;;23.83;nan
63556;BME280;49700;48.072;7.800;2023-08-01T12:33:51;98428.69;;;23.80;nan
63556;BME280;49700;48.072;7.800;2023-08-01T12:36:20;98435.47;;;23.76;nan
63556;BME280;49700;48.072;7.800;2023-08-01T12:38:46;98434.44;;;23.70;nan
63556;BME280;49700;48.072;7.800;2023-08-01T12:41:11;98430.94;;;23.70;nan
63556;BME280;49700;48.072;7.800;2023-08-01T12:43:37;98432.38;;;23.79;nan
63556;BME280;49700;48.072;7.800;2023-08-01T12:46:03;98428.00;;;23.91;nan
63556;BME280;49700;48.072;7.800;2023-08-01T12:48:28;98421.53;;;24.05;nan
63556;BME280;49700;48.072;7.800;2023-08-01T12:50:55;98416.72;;;24.21;nan
63556;BME280;49700;48.072;7.800;2023-08-01T12:53:20;98422.66;;;24.29;nan
63556;BME280;49700;48.072;7.800;2023-08-01T12:55:49;98426.16;;;24.37;nan
63556;BME280;49700;48.072;7.800;2023-08-01T12:58:15;98422.41;;;24.44;nan
63556;BME280;49700;48.072;7.800;2023-08-01T13:00:41;98433.09;;;24.51;nan
63556;BME280;49700;48.072;7.800;2023-08-01T13:03:07;98426.22;;;24.62;nan
63556;BME280;49700;48.072;7.800;2023-08-01T13:05:40;98430.03;;;24.79;nan
63556;BME280;49700;48.072;7.800;2023-08-01T13:08:07;98417.09;;;24.94;nan
63556;BME280;49700;48.072;7.800;2023-08-01T13:10:37;98420.53;;;25.02;nan
63556;BME280;49700;48.072;7.800;2023-08-01T13:13:02;98416.72;;;25.16;nan
63556;BME280;49700;48.072;7.800;2023-08-01T13:15:29;98420.09;;;25.30;nan
63556;BME280;49700;48.072;7.800;2023-08-01T13:17:55;98420.78;;;25.44;nan
63556;BME280;49700;48.072;7.800;2023-08-01T13:20:20;98429.94;;;25.61;nan
63556;BME280;49700;48.072;7.800;2023-08-01T13:22:46;98422.97;;;25.72;nan
63556;BME280;49700;48.072;7.800;2023-08-01T13:25:13;98421.19;;;25.84;nan